createdAt,value
2019-06-15T00:01:48.782Z,19.50
2019-06-15T00:04:17.798Z,19.60
2019-06-15T00:06:46.865Z,19.50
2019-06-15T00:09:15.958Z,19.50
2019-06-15T00:11:44.924Z,19.70
2019-06-15T00:14:13.813Z,19.50
2019-06-15T00:16:43.017Z,19.40
2019-06-15T00:19:12.013Z,19.50
2019-06-15T00:21:41.005Z,19.60
2019-06-15T00:24:10.068Z,19.50
2019-06-15T00:26:39.087Z,19.60
2019-06-15T00:29:08.068Z,19.50
2019-06-15T00:31:37.156Z,19.40
2019-06-15T00:34:06.119Z,19.40
2019-06-15T00:36:35.409Z,19.30
2019-06-15T00:39:05.622Z,19.20
2019-06-15T00:41:35.050Z,18.90
2019-06-15T00:44:04.037Z,18.80
2019-06-15T00:46:33.248Z,18.70
2019-06-15T00:49:02.232Z,18.80
2019-06-15T00:51:31.229Z,18.70
2019-06-15T00:54:00.185Z,18.70
2019-06-15T00:56:29.263Z,18.80
2019-06-15T00:58:58.255Z,18.80
2019-06-15T01:01:27.437Z,18.90
2019-06-15T01:03:56.430Z,18.80
2019-06-15T01:06:25.469Z,18.60
2019-06-15T01:08:54.465Z,18.60
2019-06-15T01:11:23.501Z,18.50
2019-06-15T01:13:52.386Z,18.40
2019-06-15T01:16:21.641Z,18.60
2019-06-15T01:18:50.518Z,18.90
2019-06-15T01:21:19.456Z,18.90
2019-06-15T01:23:49.534Z,19.00
2019-06-15T01:26:18.481Z,19.00
2019-06-15T01:28:47.660Z,18.90
2019-06-15T01:31:16.558Z,18.80
2019-06-15T01:33:45.819Z,18.80
2019-06-15T01:36:14.821Z,18.80
2019-06-15T01:38:43.929Z,18.80
2019-06-15T01:41:12.740Z,18.70
2019-06-15T01:43:41.717Z,18.70
2019-06-15T01:46:10.681Z,18.60
2019-06-15T01:48:39.682Z,18.60
2019-06-15T01:51:08.577Z,18.40
2019-06-15T01:53:37.736Z,18.30
2019-06-15T01:56:06.833Z,18.10
2019-06-15T01:58:35.782Z,18.10
2019-06-15T02:01:05.309Z,18.30
2019-06-15T02:03:34.290Z,18.10
2019-06-15T02:06:03.388Z,18.00
2019-06-15T02:08:32.367Z,17.90
2019-06-15T02:11:01.257Z,17.90
2019-06-15T02:13:30.393Z,18.10
2019-06-15T02:16:01.935Z,17.90
2019-06-15T02:18:30.101Z,17.80
2019-06-15T02:20:59.063Z,17.70
2019-06-15T02:23:28.034Z,17.70
2019-06-15T02:25:57.001Z,17.70
2019-06-15T02:28:26.191Z,17.70
2019-06-15T02:30:55.264Z,17.90
2019-06-15T02:33:24.296Z,17.70
2019-06-15T02:35:53.180Z,17.70
2019-06-15T02:38:22.154Z,17.90
2019-06-15T02:40:51.230Z,17.90
2019-06-15T02:43:20.272Z,17.70
2019-06-15T02:45:49.341Z,17.50
2019-06-15T02:48:18.377Z,17.40
2019-06-15T02:50:47.384Z,17.40
2019-06-15T02:53:16.344Z,17.30
2019-06-15T02:55:50.498Z,17.30
2019-06-15T02:58:16.292Z,17.30
2019-06-15T03:00:54.889Z,17.40
2019-06-15T03:03:23.761Z,17.60
2019-06-15T03:05:52.729Z,17.60
2019-06-15T03:08:22.094Z,17.60
2019-06-15T03:10:51.093Z,17.50
2019-06-15T03:13:19.984Z,17.50
2019-06-15T03:15:49.523Z,17.60
2019-06-15T03:18:18.487Z,17.70
2019-06-15T03:20:47.359Z,17.80
2019-06-15T03:23:16.281Z,17.70
2019-06-15T03:25:45.303Z,17.70
2019-06-15T03:28:14.289Z,17.70
2019-06-15T03:30:43.269Z,17.60
2019-06-15T03:33:12.321Z,17.60
2019-06-15T03:35:41.341Z,17.40
2019-06-15T03:38:10.465Z,17.30
2019-06-15T03:40:39.524Z,17.20
2019-06-15T03:43:08.530Z,17.20
2019-06-15T03:45:37.473Z,17.30
2019-06-15T03:48:06.569Z,17.30
2019-06-15T03:50:35.450Z,17.20
2019-06-15T03:53:04.505Z,17.20
2019-06-15T03:55:33.396Z,17.20
2019-06-15T03:58:02.380Z,17.20
2019-06-15T04:00:38.902Z,17.60
2019-06-15T04:03:07.961Z,18.00
2019-06-15T04:05:36.853Z,18.10
2019-06-15T04:08:05.918Z,18.00
2019-06-15T04:10:34.998Z,18.00
2019-06-15T04:13:04.153Z,17.80
2019-06-15T04:15:33.046Z,17.80
2019-06-15T04:18:02.045Z,17.90
2019-06-15T04:20:31.257Z,18.00
2019-06-15T04:23:00.227Z,18.10
2019-06-15T04:25:29.173Z,18.00
2019-06-15T04:27:58.075Z,18.00
2019-06-15T04:30:27.064Z,18.10
2019-06-15T04:32:56.156Z,17.90
2019-06-15T04:35:25.070Z,18.10
2019-06-15T04:37:54.132Z,18.30
2019-06-15T04:40:23.207Z,18.40
2019-06-15T04:42:52.124Z,18.50
2019-06-15T04:45:21.377Z,18.60
2019-06-15T04:47:50.361Z,18.70
2019-06-15T04:50:19.224Z,18.50
2019-06-15T04:52:48.172Z,18.30
2019-06-15T04:55:17.056Z,18.40
2019-06-15T04:57:46.185Z,18.30
2019-06-15T05:00:15.677Z,18.30
2019-06-15T05:02:45.229Z,18.30
2019-06-15T05:05:14.117Z,18.20
2019-06-15T05:07:43.067Z,18.00
2019-06-15T05:10:11.904Z,18.10
2019-06-15T05:12:40.906Z,18.20
2019-06-15T05:15:10.041Z,18.00
2019-06-15T05:17:39.142Z,18.10
2019-06-15T05:20:08.536Z,18.40
2019-06-15T05:22:37.611Z,18.40
2019-06-15T05:25:06.526Z,18.20
2019-06-15T05:27:35.619Z,18.10
2019-06-15T05:30:06.166Z,18.10
2019-06-15T05:32:35.188Z,18.20
2019-06-15T05:35:04.445Z,18.20
2019-06-15T05:37:33.345Z,18.20
2019-06-15T05:40:02.245Z,18.30
2019-06-15T05:42:31.207Z,18.30
2019-06-15T05:45:00.404Z,18.40
2019-06-15T05:47:29.661Z,18.50
2019-06-15T05:49:58.594Z,18.70
2019-06-15T05:52:27.484Z,18.80
2019-06-15T05:54:56.489Z,18.70
2019-06-15T05:57:25.526Z,18.80
2019-06-15T05:59:54.529Z,18.70
2019-06-15T06:02:24.832Z,18.60
2019-06-15T06:04:53.973Z,18.60
2019-06-15T06:07:23.008Z,18.90
2019-06-15T06:09:51.897Z,19.00
2019-06-15T06:12:20.830Z,19.20
2019-06-15T06:14:49.803Z,19.30
2019-06-15T06:17:18.767Z,19.60
2019-06-15T06:19:47.733Z,19.50
2019-06-15T06:22:16.631Z,19.50
2019-06-15T06:24:45.524Z,19.70
2019-06-15T06:27:14.558Z,19.90
2019-06-15T06:29:43.507Z,20.10
2019-06-15T06:32:12.479Z,20.10
2019-06-15T06:34:41.626Z,20.20
2019-06-15T06:37:10.723Z,20.30
2019-06-15T06:39:39.679Z,20.50
2019-06-15T06:42:08.707Z,20.30
2019-06-15T06:44:37.673Z,20.50
2019-06-15T06:47:06.638Z,20.70
2019-06-15T06:49:35.538Z,20.90
2019-06-15T06:52:04.596Z,21.00
2019-06-15T06:54:33.819Z,20.90
2019-06-15T06:57:03.009Z,21.30
2019-06-15T06:59:31.896Z,21.20
2019-06-15T07:02:00.939Z,20.90
2019-06-15T07:04:29.928Z,20.90
2019-06-15T07:06:58.912Z,21.00
2019-06-15T07:09:27.813Z,20.90
2019-06-15T07:11:56.717Z,20.90
2019-06-15T07:14:25.851Z,21.20
2019-06-15T07:16:54.818Z,21.40
2019-06-15T07:19:23.801Z,21.50
2019-06-15T07:21:52.707Z,21.50
2019-06-15T07:24:21.706Z,21.80
2019-06-15T07:26:50.754Z,21.90
2019-06-15T07:29:19.896Z,21.40
2019-06-15T07:31:48.869Z,21.20
2019-06-15T07:34:17.873Z,21.10
2019-06-15T07:36:46.846Z,21.10
2019-06-15T07:39:15.921Z,21.30
2019-06-15T07:41:44.956Z,21.30
2019-06-15T07:44:13.996Z,21.20
2019-06-15T07:46:43.179Z,21.80
2019-06-15T07:49:12.210Z,22.60
2019-06-15T07:51:41.168Z,23.60
2019-06-15T07:54:10.166Z,24.20
2019-06-15T07:56:39.365Z,23.80
2019-06-15T07:59:08.360Z,23.20
2019-06-15T08:01:37.355Z,22.30
2019-06-15T08:04:06.297Z,22.10
2019-06-15T08:06:35.277Z,22.70
2019-06-15T08:09:05.791Z,23.10
2019-06-15T08:11:35.278Z,23.00
2019-06-15T08:14:06.891Z,22.60
2019-06-15T08:16:35.697Z,22.40
2019-06-15T08:19:04.712Z,22.80
2019-06-15T08:21:33.710Z,24.10
2019-06-15T08:24:04.750Z,24.80
2019-06-15T08:26:33.377Z,25.30
2019-06-15T08:29:02.303Z,25.50
2019-06-15T08:31:35.314Z,24.80
2019-06-15T08:34:08.561Z,24.80
2019-06-15T08:36:37.526Z,24.80
2019-06-15T08:39:06.849Z,24.10
2019-06-15T08:41:35.803Z,23.30
2019-06-15T08:44:04.741Z,23.00
2019-06-15T08:46:33.719Z,22.80
2019-06-15T08:49:02.741Z,22.40
2019-06-15T08:51:31.682Z,22.70
2019-06-15T08:54:01.103Z,22.90
2019-06-15T08:56:29.969Z,23.00
2019-06-15T08:58:59.017Z,22.80
2019-06-15T09:01:28.042Z,23.10
2019-06-15T09:03:56.972Z,23.30
2019-06-15T09:06:25.929Z,24.20
2019-06-15T09:08:54.979Z,24.90
2019-06-15T09:11:24.134Z,24.50
2019-06-15T09:13:53.034Z,24.60
2019-06-15T09:16:25.021Z,24.70
2019-06-15T09:18:52.963Z,24.30
2019-06-15T09:21:21.947Z,24.90
2019-06-15T09:23:50.947Z,25.40
2019-06-15T09:26:20.063Z,26.30
2019-06-15T09:28:49.055Z,26.40
2019-06-15T09:31:18.232Z,25.00
2019-06-15T09:33:47.290Z,25.40
2019-06-15T09:36:16.362Z,27.00
2019-06-15T09:38:45.432Z,27.40
2019-06-15T09:41:14.503Z,26.90
2019-06-15T09:43:43.524Z,26.50
2019-06-15T09:46:12.595Z,26.70
2019-06-15T09:48:41.645Z,26.40
2019-06-15T09:51:10.876Z,25.90
2019-06-15T09:53:39.857Z,26.10
2019-06-15T09:56:09.048Z,25.50
2019-06-15T09:58:38.026Z,25.20
2019-06-15T10:01:06.890Z,25.20
2019-06-15T10:03:35.877Z,24.60
2019-06-15T10:06:05.704Z,24.60
2019-06-15T10:08:34.637Z,24.80
2019-06-15T10:11:03.673Z,24.70
2019-06-15T10:13:32.585Z,24.70
2019-06-15T10:16:01.738Z,24.70
2019-06-15T10:18:30.753Z,25.00
2019-06-15T10:20:59.817Z,24.80
2019-06-15T10:23:28.845Z,24.80
2019-06-15T10:25:57.862Z,24.10
2019-06-15T10:28:26.940Z,23.70
2019-06-15T10:30:56.006Z,24.00
2019-06-15T10:33:24.865Z,25.70
2019-06-15T10:35:53.843Z,26.30
2019-06-15T10:38:22.929Z,27.90
2019-06-15T10:40:51.936Z,28.70
2019-06-15T10:43:21.001Z,26.50
2019-06-15T10:45:50.024Z,26.10
2019-06-15T10:48:19.102Z,24.60
2019-06-15T10:50:48.020Z,24.90
2019-06-15T10:53:17.129Z,24.60
2019-06-15T10:55:46.099Z,24.80
2019-06-15T10:58:15.198Z,25.00
2019-06-15T11:00:44.240Z,25.30
2019-06-15T11:03:13.248Z,25.10
2019-06-15T11:05:42.238Z,25.40
2019-06-15T11:08:11.286Z,25.70
2019-06-15T11:10:50.797Z,24.70
2019-06-15T11:13:19.994Z,24.20
2019-06-15T11:15:48.934Z,24.50
2019-06-15T11:18:18.005Z,24.20
2019-06-15T11:20:47.405Z,24.90
2019-06-15T11:23:16.397Z,25.60
2019-06-15T11:25:45.381Z,24.90
2019-06-15T11:28:14.408Z,24.70
2019-06-15T11:30:43.473Z,24.40
2019-06-15T11:33:12.529Z,24.70
2019-06-15T11:35:41.569Z,24.90
2019-06-15T11:38:10.542Z,23.70
2019-06-15T11:40:40.182Z,23.60
2019-06-15T11:43:09.220Z,23.40
2019-06-15T11:45:38.287Z,23.90
2019-06-15T11:48:07.433Z,24.60
2019-06-15T11:50:37.145Z,24.10
2019-06-15T11:53:06.366Z,23.20
2019-06-15T11:55:39.372Z,23.30
2019-06-15T11:58:06.330Z,23.80
2019-06-15T12:00:38.803Z,24.20
2019-06-15T12:03:07.936Z,24.30
2019-06-15T12:05:37.011Z,24.70
2019-06-15T12:08:06.140Z,24.00
2019-06-15T12:10:35.169Z,23.90
2019-06-15T12:13:04.136Z,23.50
2019-06-15T12:15:33.195Z,23.70
2019-06-15T12:18:02.219Z,24.30
2019-06-15T12:20:31.229Z,24.10
2019-06-15T12:23:00.640Z,24.50
2019-06-15T12:25:29.664Z,24.90
2019-06-15T12:27:58.644Z,24.70
2019-06-15T12:30:47.640Z,25.30
2019-06-15T12:33:16.501Z,25.20
2019-06-15T12:35:45.453Z,25.10
2019-06-15T12:38:14.521Z,24.60
2019-06-15T12:40:43.659Z,24.40
2019-06-15T12:43:12.680Z,25.20
2019-06-15T12:45:42.234Z,24.90
2019-06-15T12:48:11.194Z,24.30
2019-06-15T12:50:40.462Z,24.10
2019-06-15T12:53:10.326Z,24.10
2019-06-15T12:55:39.624Z,24.30
2019-06-15T12:58:08.716Z,24.30
2019-06-15T13:00:38.111Z,23.60
2019-06-15T13:03:07.133Z,24.10
2019-06-15T13:05:36.152Z,24.70
2019-06-15T13:08:05.267Z,24.30
2019-06-15T13:10:34.234Z,24.30
2019-06-15T13:13:03.374Z,24.50
2019-06-15T13:15:32.461Z,24.70
2019-06-15T13:18:01.950Z,25.00
2019-06-15T13:20:31.062Z,24.70
2019-06-15T13:23:00.499Z,23.90
2019-06-15T13:25:29.558Z,23.70
2019-06-15T13:27:58.570Z,23.70
2019-06-15T13:30:27.631Z,23.80
2019-06-15T13:32:56.555Z,23.80
2019-06-15T13:35:25.662Z,24.10
2019-06-15T13:37:54.763Z,24.30
2019-06-15T13:40:23.812Z,24.30
2019-06-15T13:42:52.801Z,24.00
2019-06-15T13:45:22.548Z,23.60
2019-06-15T13:47:51.707Z,23.90
2019-06-15T13:50:20.824Z,24.20
2019-06-15T13:52:50.192Z,23.80
2019-06-15T13:55:21.919Z,23.50
2019-06-15T13:57:51.234Z,23.70
2019-06-15T14:00:20.369Z,23.70
2019-06-15T14:02:49.880Z,23.60
2019-06-15T14:05:18.902Z,23.80
2019-06-15T14:07:49.731Z,24.40
2019-06-15T14:10:18.727Z,23.60
2019-06-15T14:12:47.761Z,23.00
2019-06-15T14:15:17.654Z,23.00
2019-06-15T14:17:46.764Z,23.40
2019-06-15T14:20:15.719Z,23.40
2019-06-15T14:22:44.979Z,23.20
2019-06-15T14:25:14.221Z,23.50
2019-06-15T14:27:43.771Z,23.50
2019-06-15T14:30:12.933Z,23.60
2019-06-15T14:32:42.234Z,23.60
2019-06-15T14:35:11.300Z,23.90
2019-06-15T14:37:40.318Z,23.90
2019-06-15T14:40:09.381Z,24.10
2019-06-15T14:42:38.478Z,23.80
2019-06-15T14:45:07.529Z,23.40
2019-06-15T14:47:36.857Z,23.60
2019-06-15T14:50:06.012Z,23.60
2019-06-15T14:52:35.055Z,23.40
2019-06-15T14:55:04.261Z,23.40
2019-06-15T14:57:36.126Z,23.00
2019-06-15T15:00:08.913Z,22.90
2019-06-15T15:02:37.809Z,23.30
2019-06-15T15:05:07.057Z,23.20
2019-06-15T15:07:36.794Z,23.20
2019-06-15T15:10:07.283Z,23.60
2019-06-15T15:12:37.059Z,24.30
2019-06-15T15:15:07.631Z,24.00
2019-06-15T15:17:37.325Z,23.80
2019-06-15T15:20:07.375Z,23.60
2019-06-15T15:22:37.227Z,23.40
2019-06-15T15:25:06.601Z,23.40
2019-06-15T15:27:37.518Z,23.70
2019-06-15T15:30:07.029Z,23.50
2019-06-15T15:32:36.994Z,23.40
2019-06-15T15:35:06.803Z,23.30
2019-06-15T15:37:37.185Z,23.20
2019-06-15T15:40:07.416Z,22.80
2019-06-15T15:42:37.259Z,23.40
2019-06-15T15:45:07.303Z,23.10
2019-06-15T15:47:36.670Z,23.00
2019-06-15T15:50:06.570Z,22.90
2019-06-15T15:52:37.533Z,22.90
2019-06-15T15:55:08.083Z,23.00
2019-06-15T15:57:37.205Z,23.10
2019-06-15T16:00:07.635Z,22.90
2019-06-15T16:02:47.718Z,23.00
2019-06-15T16:05:07.338Z,23.00
2019-06-15T16:07:36.512Z,23.30
2019-06-15T16:10:07.513Z,23.30
2019-06-15T16:12:36.556Z,23.20
2019-06-15T16:15:07.305Z,23.60
2019-06-15T16:17:37.268Z,23.50
2019-06-15T16:20:07.348Z,23.20
2019-06-15T16:22:36.960Z,23.30
2019-06-15T16:25:07.866Z,23.50
2019-06-15T16:27:37.175Z,23.50
2019-06-15T16:30:07.045Z,23.80
2019-06-15T16:32:37.209Z,23.90
2019-06-15T16:35:06.724Z,23.70
2019-06-15T16:37:35.794Z,23.70
2019-06-15T16:40:05.820Z,24.00
2019-06-15T16:42:36.585Z,23.80
2019-06-15T16:45:06.946Z,23.60
2019-06-15T16:47:36.484Z,23.50
2019-06-15T16:50:06.875Z,23.50
2019-06-15T16:52:36.514Z,23.60
2019-06-15T16:55:06.887Z,23.60
2019-06-15T16:57:37.137Z,23.50
2019-06-15T17:00:07.947Z,23.10
2019-06-15T17:02:37.183Z,23.00
2019-06-15T17:05:06.309Z,22.80
2019-06-15T17:07:36.767Z,22.70
2019-06-15T17:10:06.488Z,22.60
2019-06-15T17:12:37.197Z,22.60
2019-06-15T17:15:06.724Z,22.50
2019-06-15T17:17:36.857Z,22.60
2019-06-15T17:20:06.603Z,22.70
2019-06-15T17:22:37.874Z,22.90
2019-06-15T17:25:07.064Z,23.00
2019-06-15T17:27:37.507Z,23.20
2019-06-15T17:30:07.173Z,23.10
2019-06-15T17:32:36.953Z,23.00
2019-06-15T17:35:06.429Z,22.90
2019-06-15T17:37:36.376Z,22.80
2019-06-15T17:40:06.136Z,22.70
2019-06-15T17:42:36.933Z,22.80
2019-06-15T17:45:06.663Z,22.70
2019-06-15T17:47:35.988Z,22.70
2019-06-15T17:50:07.525Z,22.60
2019-06-15T17:52:36.217Z,22.50
2019-06-15T17:55:07.173Z,22.50
2019-06-15T17:57:36.145Z,22.50
2019-06-15T18:00:08.621Z,22.60
2019-06-15T18:02:38.223Z,22.80
2019-06-15T18:05:08.422Z,22.40
2019-06-15T18:07:37.518Z,22.30
2019-06-15T18:10:07.368Z,22.40
2019-06-15T18:12:36.583Z,22.30
2019-06-15T18:15:05.869Z,22.20
2019-06-15T18:17:37.032Z,22.40
2019-06-15T18:20:06.937Z,22.20
2019-06-15T18:22:36.344Z,22.10
2019-06-15T18:25:06.690Z,22.20
2019-06-15T18:27:37.351Z,22.10
2019-06-15T18:30:07.023Z,21.90
2019-06-15T18:32:37.916Z,21.90
2019-06-15T18:35:07.192Z,21.80
2019-06-15T18:37:37.077Z,21.80
2019-06-15T18:40:06.678Z,21.70
2019-06-15T18:42:37.008Z,21.70
2019-06-15T18:45:06.933Z,21.70
2019-06-15T18:47:36.471Z,21.80
2019-06-15T18:50:07.597Z,21.80
2019-06-15T18:52:37.873Z,21.80
2019-06-15T18:55:07.302Z,21.70
2019-06-15T18:57:37.198Z,21.70
2019-06-15T19:00:07.205Z,21.70
2019-06-15T19:02:36.548Z,21.70
2019-06-15T19:05:06.797Z,21.60
2019-06-15T19:07:38.363Z,21.60
2019-06-15T19:10:07.548Z,21.60
2019-06-15T19:12:36.537Z,21.50
2019-06-15T19:15:07.271Z,21.60
2019-06-15T19:17:37.244Z,21.60
2019-06-15T19:20:06.576Z,21.60
2019-06-15T19:22:35.649Z,21.50
2019-06-15T19:25:04.851Z,21.50
2019-06-15T19:27:36.397Z,21.50
2019-06-15T19:30:05.165Z,21.40
2019-06-15T19:32:36.604Z,21.40
2019-06-15T19:35:05.554Z,21.30
2019-06-15T19:37:36.963Z,21.30
2019-06-15T19:40:07.404Z,21.30
2019-06-15T19:42:37.856Z,21.30
2019-06-15T19:45:10.227Z,21.20
2019-06-15T19:47:38.015Z,21.20
2019-06-15T19:50:09.946Z,21.10
2019-06-15T19:52:38.757Z,21.00
2019-06-15T19:55:07.800Z,21.10
2019-06-15T19:57:37.077Z,21.10
2019-06-15T20:00:06.921Z,21.20
2019-06-15T20:02:36.411Z,21.10
2019-06-15T20:05:06.895Z,20.90
2019-06-15T20:07:36.819Z,21.00
2019-06-15T20:10:07.372Z,21.00
2019-06-15T20:12:37.461Z,21.00
2019-06-15T20:15:06.588Z,21.10
2019-06-15T20:17:36.761Z,21.20
2019-06-15T20:20:07.095Z,21.10
2019-06-15T20:22:37.315Z,21.00
2019-06-15T20:25:06.797Z,20.90
2019-06-15T20:27:37.676Z,20.80
2019-06-15T20:30:06.743Z,20.90
2019-06-15T20:32:36.889Z,20.80
2019-06-15T20:35:16.535Z,20.90
2019-06-15T20:37:38.710Z,21.00
2019-06-15T20:40:07.862Z,21.00
2019-06-15T20:42:36.965Z,21.10
2019-06-15T20:45:07.626Z,21.00
2019-06-15T20:47:37.227Z,21.00
2019-06-15T20:50:07.873Z,21.00
2019-06-15T20:52:37.095Z,21.00
2019-06-15T20:55:06.654Z,21.10
2019-06-15T20:57:36.062Z,21.10
2019-06-15T21:00:06.322Z,21.10
2019-06-15T21:02:36.178Z,21.10
2019-06-15T21:05:07.012Z,21.20
2019-06-15T21:07:36.315Z,21.20
2019-06-15T21:10:07.100Z,21.20
2019-06-15T21:12:37.772Z,21.10
2019-06-15T21:15:07.387Z,21.10
2019-06-15T21:17:37.160Z,21.10
2019-06-15T21:20:07.324Z,21.10
2019-06-15T21:22:36.293Z,20.90
2019-06-15T21:25:06.829Z,20.80
2019-06-15T21:27:36.818Z,20.80
2019-06-15T21:30:06.932Z,20.80
2019-06-15T21:32:37.190Z,20.70
2019-06-15T21:35:06.717Z,20.70
2019-06-15T21:37:37.080Z,20.70
2019-06-15T21:40:06.557Z,20.70
2019-06-15T21:42:36.262Z,20.70
2019-06-15T21:45:07.536Z,20.70
2019-06-15T21:47:37.301Z,20.60
2019-06-15T21:50:06.812Z,20.60
2019-06-15T21:52:36.380Z,20.60
2019-06-15T21:55:07.205Z,20.60
2019-06-15T21:57:36.781Z,20.50
2019-06-15T22:00:08.313Z,20.30
2019-06-15T22:02:37.326Z,20.10
2019-06-15T22:05:07.092Z,20.00
2019-06-15T22:07:36.790Z,19.80
2019-06-15T22:10:06.637Z,19.50
2019-06-15T22:12:36.477Z,19.30
2019-06-15T22:15:07.591Z,19.00
2019-06-15T22:17:37.092Z,18.60
2019-06-15T22:20:06.893Z,18.40
2019-06-15T22:22:36.482Z,18.10
2019-06-15T22:25:06.878Z,17.90
2019-06-15T22:27:36.414Z,17.70
2019-06-15T22:30:07.580Z,17.60
2019-06-15T22:32:37.053Z,17.60
2019-06-15T22:35:07.297Z,17.60
2019-06-15T22:37:36.370Z,17.50
2019-06-15T22:40:07.854Z,17.50
2019-06-15T22:42:37.033Z,17.40
2019-06-15T22:45:06.701Z,17.40
2019-06-15T22:47:36.260Z,17.30
2019-06-15T22:50:07.770Z,17.20
2019-06-15T22:52:36.748Z,17.20
2019-06-15T22:55:06.235Z,17.20
2019-06-15T22:57:37.114Z,17.20
2019-06-15T23:00:07.658Z,17.20
2019-06-15T23:02:36.978Z,17.20
2019-06-15T23:05:06.615Z,17.30
2019-06-15T23:07:36.366Z,17.30
2019-06-15T23:10:06.974Z,17.20
2019-06-15T23:12:37.478Z,17.20
2019-06-15T23:15:08.231Z,17.20
2019-06-15T23:17:37.548Z,17.10
2019-06-15T23:20:06.850Z,17.10
2019-06-15T23:22:35.921Z,17.10
2019-06-15T23:25:06.103Z,17.10
2019-06-15T23:27:35.522Z,17.20
2019-06-15T23:30:06.762Z,17.20
2019-06-15T23:32:36.000Z,17.00
2019-06-15T23:35:06.793Z,17.10
2019-06-15T23:37:37.540Z,17.10
2019-06-15T23:40:19.677Z,17.00
2019-06-15T23:42:49.235Z,17.00
2019-06-15T23:45:19.192Z,17.00
2019-06-15T23:47:48.245Z,17.00
2019-06-15T23:50:17.409Z,17.00
2019-06-15T23:52:46.960Z,17.10
2019-06-15T23:55:16.084Z,17.10
2019-06-15T23:57:46.513Z,17.10
